Sea Island, Georgia
Current Conditions -  °F | °C
As of 10:11 AM on Wednesday 26 Nov 2014 (Local Time) from KSSI Reporting Station
Overcast Overcast  
Wind Chill: 51°   Ceiling: 1000
Heat Index: 51°   Visibility: 10mi
Dew Point: 49°   Wind: 8mph
Humidity: 92%   Direction: 280°W
Pressure: 30.1"   Gusts: NA
Location:  31.18°N, 81.35°W
Report Text: KSSI 261511Z AUTO 28007KT 10SM BKN010 OVC044 11/09 A3010 RMK AO2 CIG 006V013 T01060094
Loading
Personal Weather Stations






























Interactive Weather Map New forecast layout! Learn more

10-Day Weather Forecast

Advertisements
Track Severe Weather on mobile